KTEB

Teterboro Airport

Teterboro, New Jersey, USA
METAR KTEB 190851Z 00000KT 10SM MIFG CLR 19/19 A2979 RMK AO2 SLP087 T01940189 53004 $
Observed Flight Rules
Sep-19 @ 08:51 UTC (52 minutes ago) Visual Flight Rules
Visibility Clouds Conditions
10 miles
  • Clear skies
  • Shallow
  • Fog
Temperatures Readings
Current 19°C / 66°F
Dewpoint 19°C / 66°F
Humidity 100%
Altimeter 29.79" Hg
Pressure 1008.7 hPa
Elevation 7
METAR KTEB 190851Z 00000KT 10SM MIFG CLR 19/19 A2979 RMK AO2 SLP087 T01940189 53004 $
Observed Flight Rules
Sep-19 @ 08:51 UTC
(52 minutes ago)
VFR
Clouds
  • Clear skies
Conditions
  • Shallow
  • Fog
Temperature Dewpoint
19°C / 66°F 19°C / 66°F
Humidity Altimeter Pressure
100% 29.79" Hg 1008.7 hPa